Guyton, Georgia
Current Conditions -  °F | °C
As of 3:53 AM on Wednesday 22 Oct 2014 (Local Time) from KSAV Reporting Station
Clear Clear  
Wind Chill: 58°   Ceiling: Unl
Heat Index: 58°   Visibility: 10mi
Dew Point: 50°   Wind: 6mph
Humidity: 75%   Direction: 340°NNW
Pressure: 29.95"   Gusts: NA
Location:  32.34°N, 81.39°W
Report Text: KSAV 220753Z AUTO 34005KT 10SM CLR 14/10 A2995 RMK AO2 SLP142 T01440100 TSNO
Loading
Personal Weather Stations






























Interactive Weather Map
Tropical Storm Tracking
New forecast layout! Learn more

10-Day Weather Forecast

Advertisements
Track Severe Weather on mobile